Main page
METAR-TAF:

METAR-TAF

Airports :

Oil platform

Goeree Le, Netherlands

latitude: 51-55-33N, longitude: 3-40-12E, elevation: 19 m

Current weather observation

The report was made 28 minutes ago, at 04:25 UTC
Wind 20 kt from the Southeast
Temperature 5°C
Humidity 75%
Pressure 1011 hPa
Visibility 10 km or more

METAR: EHSC 210425Z AUTO 13020KT 9999 ///////// 05/01 Q1011 W11/H11

Time: 05:53 (04:53 UTC)


TAF: missing

Weather observations and forecasts of more than 4000 airports (METAR and TAF reports).

The available stations are represented by yellow and red dots on the map.

Hover mouse over dot to see the name of the station.

Then click to see weather observations and forecasts.

To change the map : click on the green buttons with a black cross to zoom in, on the green button with a dash to zoom out, or on the green arrows for adjacent maps.


METAR-TAF: